Time;durP1;ratioP1;P1;durP2;ratioP2;P2;SDS_P1;SDS_P2;PMS_P1;PMS_P2;Temp;Humidity;BMP_temperature;BMP_pressure;BME280_temperature;BME280_humidity;BME280_pressure;Samples;Min_cycle;Max_cycle;Signal;HPM_P1;HPM_P2
2022/01/13 00:01:11;;;;;;;;;;;-5.50;99.90;;;;;;5019538;28;20017;-86
2022/01/13 00:03:36;;;;;;;;;;;-5.50;99.90;;;;;;5020277;28;19933;-86
2022/01/13 00:06:02;;;;;;;;;;;-5.50;99.90;;;;;;5024189;28;19910;-86
2022/01/13 00:08:28;;;;;;;;;;;-5.50;99.90;;;;;;5027615;28;20059;-86
2022/01/13 00:10:53;;;;;;;;;;;-5.50;99.90;;;;;;5026286;28;19921;-87
2022/01/13 00:13:26;;;;;;;;;;;-5.50;99.90;;;;;;5024972;28;19909;-86
2022/01/13 00:16:26;;;;;;;;;;;-5.60;99.90;;;;;;5024499;28;19986;-87
2022/01/13 00:18:49;;;;;;;;;;;-5.50;99.90;;;;;;5028061;28;19918;-86
2022/01/13 00:21:30;;;;;;;;;;;-5.60;99.90;;;;;;5026875;28;19909;-87
2022/01/13 00:23:59;;;;;;;;;;;-5.50;99.90;;;;;;5024089;28;20395;-86
2022/01/13 00:26:26;;;;;;;;;;;-5.50;99.90;;;;;;5021183;28;20319;-85
2022/01/13 00:28:53;;;;;;;;;;;-5.50;99.90;;;;;;5021008;28;19913;-86
2022/01/13 00:31:27;;;;;;;;;;;-5.50;99.90;;;;;;5021066;28;19988;-87
2022/01/13 00:33:54;;;;;;;;;;;-5.40;99.90;;;;;;5022855;28;19910;-87
2022/01/13 00:36:27;;;;;;;;;;;-5.40;99.90;;;;;;5021515;28;19910;-86
2022/01/13 00:38:53;;;;;;;;;;;-5.40;99.90;;;;;;5022429;28;19910;-86
2022/01/13 00:41:19;;;;;;;;;;;-5.50;99.90;;;;;;5022321;28;20376;-86
2022/01/13 00:43:46;;;;;;;;;;;-5.40;99.90;;;;;;5021785;28;19958;-86
2022/01/13 00:46:19;;;;;;;;;;;-5.10;99.90;;;;;;5022480;28;20365;-86
2022/01/13 00:48:45;;;;;;;;;;;-5.20;99.90;;;;;;5022412;28;19960;-86
2022/01/13 00:51:11;;;;;;;;;;;-5.20;99.90;;;;;;5022656;28;19924;-87
2022/01/13 00:53:37;;;;;;;;;;;-5.20;99.90;;;;;;5023052;28;19913;-86
2022/01/13 00:56:03;;;;;;;;;;;-5.20;99.90;;;;;;5025452;28;20396;-86
2022/01/13 00:58:29;;;;;;;;;;;-5.20;99.90;;;;;;5022887;28;19909;-86
2022/01/13 01:00:55;;;;;;;;;;;-5.10;99.90;;;;;;5020294;28;20012;-86
2022/01/13 01:03:21;;;;;;;;;;;-4.80;99.90;;;;;;5021386;28;19910;-86
2022/01/13 01:05:47;;;;;;;;;;;-4.80;99.90;;;;;;5019914;28;19917;-87
2022/01/13 01:08:13;;;;;;;;;;;-4.80;99.90;;;;;;5020338;28;19945;-86
2022/01/13 01:10:38;;;;;;;;;;;-4.80;99.90;;;;;;5020194;28;19909;-87
2022/01/13 01:13:12;;;;;;;;;;;-4.80;99.90;;;;;;5019613;28;19913;-86
2022/01/13 01:15:41;;;;;;;;;;;-4.80;99.90;;;;;;5019980;28;19952;-87
2022/01/13 01:18:18;;;;;;;;;;;-4.60;99.90;;;;;;5017100;28;19909;-86
2022/01/13 01:21:02;;;;;;;;;;;-4.60;99.90;;;;;;5018138;28;20028;-87
2022/01/13 01:23:28;;;;;;;;;;;-4.60;99.90;;;;;;5017323;28;19917;-87
2022/01/13 01:26:25;;;;;;;;;;;-4.50;99.90;;;;;;5017431;28;19920;-86
2022/01/13 01:29:02;;;;;;;;;;;-4.70;99.90;;;;;;5017114;28;19909;-86
2022/01/13 01:31:30;;;;;;;;;;;-4.80;99.90;;;;;;5016792;28;19922;-87
2022/01/13 01:36:28;;;;;;;;;;;-4.80;99.90;;;;;;5019003;28;20008;-86
2022/01/13 01:38:56;;;;;;;;;;;-4.70;99.90;;;;;;5017990;28;19960;-86
2022/01/13 01:41:21;;;;;;;;;;;-4.70;99.90;;;;;;5017480;28;19913;-86
2022/01/13 01:43:49;;;;;;;;;;;-4.60;99.90;;;;;;5017597;28;19910;-86
2022/01/13 01:46:14;;;;;;;;;;;-4.50;99.90;;;;;;5018177;28;19918;-85
2022/01/13 01:48:40;;;;;;;;;;;-4.50;99.90;;;;;;5017571;28;20004;-87
2022/01/13 01:51:07;;;;;;;;;;;-4.60;99.90;;;;;;5017559;28;19952;-87
2022/01/13 01:53:33;;;;;;;;;;;-4.50;99.90;;;;;;5017446;28;19913;-87
2022/01/13 01:56:02;;;;;;;;;;;-4.50;99.90;;;;;;5016769;28;19909;-87
2022/01/13 01:58:29;;;;;;;;;;;-4.50;99.90;;;;;;5017723;28;20000;-87
2022/01/13 02:00:55;;;;;;;;;;;-4.40;99.90;;;;;;5017267;28;19917;-87
2022/01/13 02:03:22;;;;;;;;;;;-4.30;99.90;;;;;;5017459;28;20012;-87
2022/01/13 02:05:48;;;;;;;;;;;-4.20;99.90;;;;;;5016839;28;19925;-88
2022/01/13 02:08:14;;;;;;;;;;;-4.20;99.90;;;;;;5017931;28;20069;-87
2022/01/13 02:10:40;;;;;;;;;;;-4.10;99.90;;;;;;5016870;28;19916;-87
2022/01/13 02:13:10;;;;;;;;;;;-4.00;99.90;;;;;;5016799;28;19909;-87
2022/01/13 02:15:48;;;;;;;;;;;-4.00;99.90;;;;;;5016816;28;20039;-87
2022/01/13 02:18:14;;;;;;;;;;;-4.00;99.90;;;;;;5017365;28;19920;-86
2022/01/13 02:20:44;;;;;;;;;;;-4.10;99.90;;;;;;5017439;28;19909;-87
2022/01/13 02:23:09;;;;;;;;;;;-4.10;99.90;;;;;;5016752;28;19917;-87
2022/01/13 02:25:35;;;;;;;;;;;-4.10;99.90;;;;;;5016560;28;19956;-87
2022/01/13 02:28:01;;;;;;;;;;;-4.10;99.90;;;;;;5017190;28;19937;-87
2022/01/13 02:30:26;;;;;;;;;;;-4.10;99.90;;;;;;5021241;28;20407;-87
2022/01/13 02:32:52;;;;;;;;;;;-4.10;99.90;;;;;;5027557;28;19917;-87
2022/01/13 02:35:17;;;;;;;;;;;-4.10;99.90;;;;;;5023491;28;19910;-87
2022/01/13 02:37:43;;;;;;;;;;;-4.10;99.90;;;;;;5018055;28;19917;-88
2022/01/13 02:40:09;;;;;;;;;;;-4.00;99.90;;;;;;5017764;28;19909;-87
2022/01/13 02:42:35;;;;;;;;;;;-4.00;99.90;;;;;;5017633;28;19960;-88
2022/01/13 02:45:14;;;;;;;;;;;-3.90;99.90;;;;;;5017956;28;20313;-87
2022/01/13 02:50:10;;;;;;;;;;;-3.90;99.90;;;;;;5042971;28;19996;-90
2022/01/13 02:52:36;;;;;;;;;;;-3.90;99.90;;;;;;5041531;28;20008;-87
2022/01/13 02:55:03;;;;;;;;;;;-3.90;99.90;;;;;;5041305;28;19948;-87
2022/01/13 02:57:28;;;;;;;;;;;-3.90;99.90;;;;;;5041329;28;19932;-88
2022/01/13 02:59:54;;;;;;;;;;;-3.90;99.90;;;;;;5020877;28;19913;-86
2022/01/13 03:02:23;;;;;;;;;;;-3.90;99.90;;;;;;5036345;28;19913;-87
2022/01/13 03:04:51;;;;;;;;;;;-3.90;99.90;;;;;;5020216;28;19913;-87
2022/01/13 03:07:17;;;;;;;;;;;-3.80;99.90;;;;;;5019969;28;19913;-87
2022/01/13 03:09:43;;;;;;;;;;;-3.70;99.90;;;;;;5019602;28;19914;-86
2022/01/13 03:12:09;;;;;;;;;;;-3.80;99.90;;;;;;5036231;28;19952;-86
2022/01/13 03:14:34;;;;;;;;;;;-3.90;99.90;;;;;;5019829;28;19956;-86
2022/01/13 03:17:00;;;;;;;;;;;-3.80;99.90;;;;;;5019629;28;19913;-87
2022/01/13 03:19:25;;;;;;;;;;;-3.90;99.90;;;;;;5036564;28;19909;-87
2022/01/13 03:21:51;;;;;;;;;;;-3.90;99.90;;;;;;5019391;28;19937;-88
2022/01/13 03:24:16;;;;;;;;;;;-3.80;99.90;;;;;;5022158;28;19921;-87
2022/01/13 03:26:44;;;;;;;;;;;-3.80;99.90;;;;;;5038022;28;20440;-87
2022/01/13 03:31:35;;;;;;;;;;;-3.70;99.90;;;;;;5036913;28;19921;-86
2022/01/13 03:34:01;;;;;;;;;;;-3.80;99.90;;;;;;5036242;28;19909;-87
2022/01/13 03:36:27;;;;;;;;;;;-3.80;99.90;;;;;;5018881;28;19954;-87
2022/01/13 03:38:53;;;;;;;;;;;-4.00;99.90;;;;;;5035992;28;20000;-87
2022/01/13 03:41:20;;;;;;;;;;;-4.00;99.90;;;;;;5037464;28;19995;-87
2022/01/13 03:43:45;;;;;;;;;;;-4.00;99.90;;;;;;5040300;28;20389;-86
2022/01/13 03:46:11;;;;;;;;;;;-3.90;99.90;;;;;;5040173;28;19947;-86
2022/01/13 03:48:36;;;;;;;;;;;-4.00;99.90;;;;;;5023223;28;19936;-86
2022/01/13 03:51:02;;;;;;;;;;;-4.00;99.90;;;;;;5023002;28;19924;-87
2022/01/13 03:53:30;;;;;;;;;;;-3.90;99.90;;;;;;5022505;28;19913;-87
2022/01/13 03:56:14;;;;;;;;;;;-3.80;99.90;;;;;;5038773;28;19909;-87
2022/01/13 03:58:55;;;;;;;;;;;-3.90;99.90;;;;;;5039131;28;20030;-87
2022/01/13 04:01:39;;;;;;;;;;;-3.80;99.90;;;;;;5038862;28;19913;-86
2022/01/13 04:04:05;;;;;;;;;;;-3.80;99.90;;;;;;5039944;28;19916;-87
2022/01/13 04:06:39;;;;;;;;;;;-3.90;99.90;;;;;;5039171;28;19909;-87
2022/01/13 04:09:24;;;;;;;;;;;-4.00;99.90;;;;;;5039304;28;19909;-87
2022/01/13 04:11:51;;;;;;;;;;;-4.10;99.90;;;;;;5039943;28;20016;-86
2022/01/13 04:14:26;;;;;;;;;;;-3.90;99.90;;;;;;5040960;28;19959;-86
2022/01/13 04:16:51;;;;;;;;;;;-3.80;99.90;;;;;;5045579;28;19976;-86
2022/01/13 04:19:17;;;;;;;;;;;-3.80;99.90;;;;;;5032813;28;19920;-86
2022/01/13 04:21:43;;;;;;;;;;;-3.70;99.90;;;;;;5048788;28;19909;-86
2022/01/13 04:24:12;;;;;;;;;;;-3.80;99.90;;;;;;5050593;28;19924;-87
2022/01/13 04:26:43;;;;;;;;;;;-3.80;99.90;;;;;;5043995;28;19911;-87
2022/01/13 04:31:37;;;;;;;;;;;-4.10;99.90;;;;;;5040490;28;19928;-88
2022/01/13 04:34:03;;;;;;;;;;;-4.00;99.90;;;;;;5040090;28;19913;-87
2022/01/13 04:36:28;;;;;;;;;;;-4.00;99.90;;;;;;5041084;28;20015;-86
2022/01/13 04:38:54;;;;;;;;;;;-3.90;99.90;;;;;;5040796;28;19913;-88
2022/01/13 04:41:30;;;;;;;;;;;-4.00;99.90;;;;;;5040979;28;19909;-87
2022/01/13 04:43:56;;;;;;;;;;;-4.00;99.90;;;;;;5045932;28;19909;-86
2022/01/13 04:46:22;;;;;;;;;;;-3.80;99.90;;;;;;5041584;28;19921;-87
2022/01/13 04:48:47;;;;;;;;;;;-3.90;99.90;;;;;;5022961;28;20449;-89
2022/01/13 04:51:13;;;;;;;;;;;-3.90;99.90;;;;;;5018582;28;19925;-87
2022/01/13 04:53:38;;;;;;;;;;;-4.10;99.90;;;;;;5018497;28;19980;-86
2022/01/13 04:56:10;;;;;;;;;;;-4.10;99.90;;;;;;5019445;28;19991;-86
2022/01/13 04:58:36;;;;;;;;;;;-4.00;99.90;;;;;;5019363;28;19916;-86
2022/01/13 05:01:02;;;;;;;;;;;-4.00;99.90;;;;;;5019323;28;19913;-87
2022/01/13 05:03:27;;;;;;;;;;;-4.00;99.90;;;;;;5019849;28;19961;-87
2022/01/13 05:05:53;;;;;;;;;;;-3.90;99.90;;;;;;5018371;28;19910;-87
2022/01/13 05:08:18;;;;;;;;;;;-3.90;99.90;;;;;;5018269;28;19945;-86
2022/01/13 05:10:44;;;;;;;;;;;-4.10;99.90;;;;;;5017572;28;19910;-87
2022/01/13 05:13:11;;;;;;;;;;;-4.10;99.90;;;;;;5017700;28;20015;-87
2022/01/13 05:15:39;;;;;;;;;;;-4.00;99.90;;;;;;5018016;28;20384;-87
2022/01/13 05:20:49;;;;;;;;;;;-4.10;99.90;;;;;;5019326;28;19979;-86
2022/01/13 05:23:16;;;;;;;;;;;-4.10;99.90;;;;;;5018057;28;20304;-86
2022/01/13 05:25:42;;;;;;;;;;;-4.10;99.90;;;;;;5017957;28;19913;-87
2022/01/13 05:28:08;;;;;;;;;;;-4.00;99.90;;;;;;5017635;28;19917;-87
2022/01/13 05:30:33;;;;;;;;;;;-4.00;99.90;;;;;;5016896;28;19913;-87
2022/01/13 05:32:59;;;;;;;;;;;-4.10;99.90;;;;;;5018371;28;19918;-87
2022/01/13 05:35:25;;;;;;;;;;;-4.10;99.90;;;;;;5020128;28;19992;-86
2022/01/13 05:37:51;;;;;;;;;;;-4.20;99.90;;;;;;5020884;28;19916;-86
2022/01/13 05:40:16;;;;;;;;;;;-4.20;99.90;;;;;;5026459;28;19913;-86
2022/01/13 05:42:42;;;;;;;;;;;-4.10;99.90;;;;;;5039935;28;19916;-86
2022/01/13 05:45:14;;;;;;;;;;;-4.20;99.90;;;;;;5040249;28;19913;-87
2022/01/13 05:47:41;;;;;;;;;;;-4.10;99.90;;;;;;5043222;28;19915;-87
2022/01/13 05:50:07;;;;;;;;;;;-4.20;99.90;;;;;;5041834;28;19913;-87
2022/01/13 05:52:33;;;;;;;;;;;-4.20;99.90;;;;;;5039866;28;19966;-87
2022/01/13 05:54:58;;;;;;;;;;;-4.20;99.90;;;;;;5052969;28;19909;-88
2022/01/13 05:57:24;;;;;;;;;;;-4.20;99.90;;;;;;5038547;28;19924;-87
2022/01/13 05:59:49;;;;;;;;;;;-4.30;99.90;;;;;;5038725;28;20353;-86
2022/01/13 06:02:15;;;;;;;;;;;-4.10;99.90;;;;;;5037431;28;20387;-86
2022/01/13 06:04:40;;;;;;;;;;;-4.00;99.90;;;;;;5037671;28;19909;-87
2022/01/13 06:07:06;;;;;;;;;;;-3.90;99.90;;;;;;5038070;28;19909;-87
2022/01/13 06:09:31;;;;;;;;;;;-4.00;99.90;;;;;;5037470;28;20023;-87
2022/01/13 06:12:01;;;;;;;;;;;-4.00;99.90;;;;;;5021003;28;20356;-87
2022/01/13 06:14:27;;;;;;;;;;;-4.20;99.90;;;;;;5037290;28;19909;-86
2022/01/13 06:16:52;;;;;;;;;;;-4.20;99.90;;;;;;5037401;28;19916;-87
2022/01/13 06:19:18;;;;;;;;;;;-4.20;99.90;;;;;;5038229;28;20038;-87
2022/01/13 06:21:44;;;;;;;;;;;-4.20;99.90;;;;;;5037201;28;19920;-88
2022/01/13 06:24:09;;;;;;;;;;;-4.10;99.90;;;;;;5019241;28;19928;-88
2022/01/13 06:26:37;;;;;;;;;;;-4.10;99.90;;;;;;5042003;28;19916;-87
2022/01/13 06:29:03;;;;;;;;;;;-4.30;99.90;;;;;;5025027;28;19967;-88
2022/01/13 06:31:28;;;;;;;;;;;-4.20;99.90;;;;;;5021512;28;20376;-89
2022/01/13 06:33:54;;;;;;;;;;;-4.20;99.90;;;;;;5038844;28;19921;-87
2022/01/13 06:36:19;;;;;;;;;;;-4.20;99.90;;;;;;5039280;28;19909;-86
2022/01/13 06:38:48;;;;;;;;;;;-4.20;99.90;;;;;;5039238;28;19909;-87
2022/01/13 06:41:14;;;;;;;;;;;-4.20;99.90;;;;;;5039451;28;19909;-88
2022/01/13 06:43:40;;;;;;;;;;;-4.10;99.90;;;;;;5040419;28;20056;-86
2022/01/13 06:46:06;;;;;;;;;;;-4.20;99.90;;;;;;5039507;28;19941;-87
2022/01/13 06:48:31;;;;;;;;;;;-4.10;99.90;;;;;;5039327;28;19919;-88
2022/01/13 06:50:57;;;;;;;;;;;-4.20;99.90;;;;;;5039555;28;19913;-85
2022/01/13 06:53:24;;;;;;;;;;;-4.20;99.90;;;;;;5024097;28;20263;-87
2022/01/13 06:55:51;;;;;;;;;;;-4.20;99.90;;;;;;5044028;28;20436;-88
2022/01/13 06:58:16;;;;;;;;;;;-4.20;99.90;;;;;;5025851;28;19913;-88
2022/01/13 07:00:42;;;;;;;;;;;-4.20;99.90;;;;;;5041182;28;19920;-87
2022/01/13 07:03:09;;;;;;;;;;;-4.10;99.90;;;;;;5036530;28;19909;-86
2022/01/13 07:05:34;;;;;;;;;;;-4.10;99.90;;;;;;5051330;28;19920;-87
2022/01/13 07:08:00;;;;;;;;;;;-4.10;99.90;;;;;;5033933;28;19913;-87
2022/01/13 07:10:26;;;;;;;;;;;-4.00;99.90;;;;;;5050528;28;20373;-88
2022/01/13 07:12:51;;;;;;;;;;;-4.10;99.90;;;;;;5050568;28;19913;-86
2022/01/13 07:15:17;;;;;;;;;;;-4.20;99.90;;;;;;5016940;28;20015;-86
2022/01/13 07:17:42;;;;;;;;;;;-4.10;99.90;;;;;;5050071;28;19909;-87
2022/01/13 07:20:08;;;;;;;;;;;-4.00;99.90;;;;;;5050271;28;19916;-86
2022/01/13 07:22:35;;;;;;;;;;;-4.00;99.90;;;;;;5033331;28;20280;-87
2022/01/13 07:25:01;;;;;;;;;;;-3.90;99.90;;;;;;5033962;28;19913;-87
2022/01/13 07:27:27;;;;;;;;;;;-3.90;99.90;;;;;;5033504;28;19924;-88
2022/01/13 07:29:52;;;;;;;;;;;-4.00;99.90;;;;;;5032928;28;20046;-88
2022/01/13 07:32:18;;;;;;;;;;;-3.90;99.90;;;;;;5048606;28;19999;-87
2022/01/13 07:34:44;;;;;;;;;;;-4.00;99.90;;;;;;5032849;28;19917;-87
2022/01/13 07:37:09;;;;;;;;;;;-3.90;99.90;;;;;;5049674;28;19975;-87
2022/01/13 07:39:35;;;;;;;;;;;-3.80;99.90;;;;;;5034167;28;19913;-86
2022/01/13 07:42:02;;;;;;;;;;;-3.70;99.90;;;;;;5034070;28;20051;-86
2022/01/13 07:44:28;;;;;;;;;;;-3.50;99.90;;;;;;5034428;28;19949;-87
2022/01/13 07:46:56;;;;;;;;;;;-3.60;99.90;;;;;;5033927;28;20431;-88
2022/01/13 07:49:21;;;;;;;;;;;-3.80;99.90;;;;;;5050553;28;19917;-86
2022/01/13 07:51:47;;;;;;;;;;;-3.80;99.90;;;;;;5050621;28;19913;-86
2022/01/13 07:54:12;;;;;;;;;;;-3.60;99.90;;;;;;5050874;28;19916;-88
2022/01/13 07:56:38;;;;;;;;;;;-3.80;99.90;;;;;;5034036;28;20364;-87
2022/01/13 07:59:03;;;;;;;;;;;-3.80;99.90;;;;;;5033770;28;20404;-87
2022/01/13 08:01:29;;;;;;;;;;;-3.80;99.90;;;;;;5034365;28;20416;-86
2022/01/13 08:03:55;;;;;;;;;;;-3.70;99.90;;;;;;5049805;28;19909;-88
2022/01/13 08:06:20;;;;;;;;;;;-3.50;99.90;;;;;;5032875;28;19936;-86
2022/01/13 08:08:46;;;;;;;;;;;-3.50;99.90;;;;;;5033537;28;20379;-87
2022/01/13 08:11:11;;;;;;;;;;;-3.50;99.90;;;;;;5049272;28;20276;-87
2022/01/13 08:13:37;;;;;;;;;;;-3.20;99.90;;;;;;5049803;28;20352;-87
2022/01/13 08:16:07;;;;;;;;;;;-3.10;99.90;;;;;;5033529;28;19927;-87
2022/01/13 08:21:17;;;;;;;;;;;-3.40;99.90;;;;;;5038679;28;19924;-88
2022/01/13 08:23:42;;;;;;;;;;;-3.40;99.90;;;;;;5040386;28;19917;-88
2022/01/13 08:26:08;;;;;;;;;;;-3.40;99.90;;;;;;5040762;28;19909;-88
2022/01/13 08:28:33;;;;;;;;;;;-3.30;99.90;;;;;;5058568;28;19936;-88
2022/01/13 08:30:59;;;;;;;;;;;-3.30;99.90;;;;;;5037744;28;19913;-86
2022/01/13 08:33:25;;;;;;;;;;;-3.20;99.90;;;;;;5037603;28;19913;-87
2022/01/13 08:35:51;;;;;;;;;;;-3.20;99.90;;;;;;5018748;28;20273;-89
2022/01/13 08:38:18;;;;;;;;;;;-3.00;99.90;;;;;;5037929;28;19936;-87
2022/01/13 08:40:49;;;;;;;;;;;-2.80;99.90;;;;;;5037661;28;19913;-87
2022/01/13 08:43:15;;;;;;;;;;;-2.80;99.90;;;;;;5037859;28;19921;-85
2022/01/13 08:45:41;;;;;;;;;;;-2.60;99.90;;;;;;5036985;28;19960;-88
2022/01/13 08:48:07;;;;;;;;;;;-2.50;99.90;;;;;;5020240;28;19968;-87
2022/01/13 08:50:32;;;;;;;;;;;-2.60;99.90;;;;;;5036449;28;19909;-88
2022/01/13 08:52:58;;;;;;;;;;;-3.00;99.90;;;;;;5019624;28;19932;-88
2022/01/13 08:55:23;;;;;;;;;;;-3.20;99.90;;;;;;5020148;28;20540;-86
2022/01/13 08:57:49;;;;;;;;;;;-3.20;99.90;;;;;;5036692;28;19909;-88
2022/01/13 09:00:15;;;;;;;;;;;-3.00;99.90;;;;;;5019931;28;19920;-86
2022/01/13 09:02:41;;;;;;;;;;;-2.70;99.90;;;;;;5035739;28;19956;-88
2022/01/13 09:05:07;;;;;;;;;;;-2.50;99.90;;;;;;5026294;28;20298;-87
2022/01/13 09:07:33;;;;;;;;;;;-2.50;99.90;;;;;;5018004;28;19909;-88
2022/01/13 09:09:58;;;;;;;;;;;-2.60;99.90;;;;;;5031107;28;19971;-86
2022/01/13 09:12:24;;;;;;;;;;;-2.80;99.90;;;;;;5029784;28;19931;-87
2022/01/13 09:14:51;;;;;;;;;;;-2.70;99.90;;;;;;5039025;28;19919;-87
2022/01/13 09:17:23;;;;;;;;;;;-2.70;99.90;;;;;;5019849;28;20379;-87
2022/01/13 09:19:49;;;;;;;;;;;-2.70;99.90;;;;;;5037101;28;19917;-87
2022/01/13 09:22:15;;;;;;;;;;;-2.70;99.90;;;;;;5036685;28;19960;-87
2022/01/13 09:24:41;;;;;;;;;;;-2.40;99.90;;;;;;5036355;28;19944;-87
2022/01/13 09:27:07;;;;;;;;;;;-2.40;99.90;;;;;;5019208;28;19917;-87
2022/01/13 09:29:33;;;;;;;;;;;-2.50;99.90;;;;;;5036292;28;19913;-87
2022/01/13 09:31:58;;;;;;;;;;;-2.60;99.90;;;;;;5018955;28;19932;-87
2022/01/13 09:34:24;;;;;;;;;;;-2.90;99.90;;;;;;5019964;28;19922;-86
2022/01/13 09:36:49;;;;;;;;;;;-3.00;99.90;;;;;;5038428;28;20011;-87
2022/01/13 09:39:15;;;;;;;;;;;-2.60;99.90;;;;;;5036058;28;20398;-87
2022/01/13 09:41:42;;;;;;;;;;;-2.70;99.90;;;;;;5037011;28;19909;-86
2022/01/13 09:44:10;;;;;;;;;;;-2.60;99.90;;;;;;5036477;28;20380;-87
2022/01/13 09:46:35;;;;;;;;;;;-2.70;99.90;;;;;;5018778;28;19960;-87
2022/01/13 09:49:03;;;;;;;;;;;-2.40;99.90;;;;;;5034927;28;20303;-87
2022/01/13 09:51:29;;;;;;;;;;;-2.50;99.90;;;;;;5035331;28;19913;-87
2022/01/13 09:53:55;;;;;;;;;;;-2.60;99.90;;;;;;5035333;28;19975;-87
2022/01/13 09:56:21;;;;;;;;;;;-2.50;99.90;;;;;;5035092;28;20353;-86
2022/01/13 09:58:47;;;;;;;;;;;-2.60;99.90;;;;;;5032122;28;19956;-86
2022/01/13 10:01:13;;;;;;;;;;;-2.40;99.90;;;;;;5034080;28;19913;-86
2022/01/13 10:03:38;;;;;;;;;;;-2.40;99.90;;;;;;5018217;28;19944;-87
2022/01/13 10:06:12;;;;;;;;;;;-2.20;99.90;;;;;;5034376;28;20331;-86
2022/01/13 10:08:51;;;;;;;;;;;-2.10;99.90;;;;;;5033935;28;19979;-87
2022/01/13 10:11:35;;;;;;;;;;;-2.00;99.90;;;;;;5033805;28;19955;-85
2022/01/13 10:16:23;;;;;;;;;;;-1.90;99.90;;;;;;5034541;28;19910;-88
2022/01/13 10:17:07;;;;;;;;;;;-2.20;99.90;;;;;;5034867;28;20280;-88
2022/01/13 10:19:32;;;;;;;;;;;-2.20;99.90;;;;;;5017308;28;19940;-86
2022/01/13 10:22:01;;;;;;;;;;;-2.30;99.90;;;;;;5033647;28;19913;-87
2022/01/13 10:24:28;;;;;;;;;;;-2.00;99.90;;;;;;5013664;28;20099;-90
2022/01/13 10:27:05;;;;;;;;;;;-2.00;99.90;;;;;;5014094;28;19910;-89
2022/01/13 10:29:38;;;;;;;;;;;-1.80;99.90;;;;;;5013632;28;19909;-88
2022/01/13 10:32:04;;;;;;;;;;;-1.90;99.90;;;;;;5026133;28;19979;-87
2022/01/13 10:34:32;;;;;;;;;;;-1.80;99.90;;;;;;5033592;28;19913;-87
2022/01/13 10:37:00;;;;;;;;;;;-1.70;99.90;;;;;;5034146;28;19921;-89
2022/01/13 10:39:49;;;;;;;;;;;-1.80;99.90;;;;;;5033516;28;19909;-87
2022/01/13 10:42:43;;;;;;;;;;;-2.00;99.90;;;;;;5033309;28;19996;-87
2022/01/13 10:45:00;;;;;;;;;;;-1.80;99.90;;;;;;5034419;28;19909;-87
2022/01/13 10:47:27;;;;;;;;;;;-2.00;99.90;;;;;;5017047;28;19941;-88
2022/01/13 10:49:52;;;;;;;;;;;-1.70;99.90;;;;;;5032824;28;19921;-88
2022/01/13 10:52:26;;;;;;;;;;;-1.50;99.90;;;;;;5033047;28;19917;-87
2022/01/13 10:54:53;;;;;;;;;;;-1.40;99.90;;;;;;5032926;28;19949;-86
2022/01/13 10:57:20;;;;;;;;;;;-1.40;99.90;;;;;;5032775;28;19913;-87
2022/01/13 10:59:45;;;;;;;;;;;-1.40;99.90;;;;;;5018294;28;19925;-86
2022/01/13 11:02:11;;;;;;;;;;;-1.50;99.90;;;;;;5029125;28;20396;-87
2022/01/13 11:04:37;;;;;;;;;;;-1.20;99.90;;;;;;5050098;28;19917;-87
2022/01/13 11:07:30;;;;;;;;;;;-1.10;99.90;;;;;;5016828;28;19952;-87
2022/01/13 11:09:57;;;;;;;;;;;-0.90;99.90;;;;;;5036888;28;19913;-86
2022/01/13 11:12:36;;;;;;;;;;;-1.00;99.90;;;;;;5039548;28;19923;-88
2022/01/13 11:15:06;;;;;;;;;;;-1.10;99.90;;;;;;5042172;28;19913;-87
2022/01/13 11:17:38;;;;;;;;;;;-1.10;99.90;;;;;;5023686;28;19920;-87
2022/01/13 11:20:05;;;;;;;;;;;-1.30;99.90;;;;;;5038181;28;19970;-87
2022/01/13 11:22:34;;;;;;;;;;;-1.20;99.90;;;;;;5024183;28;19917;-89
2022/01/13 11:25:02;;;;;;;;;;;-1.40;99.90;;;;;;5041216;28;20019;-87
2022/01/13 11:27:27;;;;;;;;;;;-1.40;99.90;;;;;;5036996;28;19916;-86
2022/01/13 11:29:55;;;;;;;;;;;-1.30;99.90;;;;;;5030626;28;19914;-88
2022/01/13 11:32:21;;;;;;;;;;;-1.00;99.90;;;;;;5031670;28;19925;-86
2022/01/13 11:34:47;;;;;;;;;;;-0.60;99.90;;;;;;5031536;28;20335;-88
2022/01/13 11:37:13;;;;;;;;;;;-0.40;99.90;;;;;;5030027;28;20003;-85
2022/01/13 11:39:40;;;;;;;;;;;0.00;99.90;;;;;;5030023;28;19923;-86
2022/01/13 11:42:07;;;;;;;;;;;0.00;99.90;;;;;;5023462;28;19924;-87
2022/01/13 11:44:32;;;;;;;;;;;0.10;99.90;;;;;;5031165;28;19913;-88
2022/01/13 11:46:58;;;;;;;;;;;-0.40;99.90;;;;;;5031182;28;19921;-87
2022/01/13 11:49:54;;;;;;;;;;;-0.60;99.90;;;;;;5029635;28;20539;-89
2022/01/13 11:52:42;;;;;;;;;;;-0.70;99.90;;;;;;5031823;28;19913;-87
2022/01/13 11:55:26;;;;;;;;;;;-0.50;99.90;;;;;;5030703;28;19913;-89
2022/01/13 11:57:52;;;;;;;;;;;-0.30;99.90;;;;;;5049111;28;19916;-89
2022/01/13 12:00:18;;;;;;;;;;;-0.50;99.90;;;;;;5030537;28;19952;-87
2022/01/13 12:02:44;;;;;;;;;;;-0.40;99.90;;;;;;5052752;28;19920;-90
2022/01/13 12:05:17;;;;;;;;;;;-0.40;99.90;;;;;;5038201;28;19917;-88
2022/01/13 12:07:48;;;;;;;;;;;-0.20;99.90;;;;;;5022258;28;19939;-89
2022/01/13 12:10:22;;;;;;;;;;;-0.40;99.90;;;;;;5054995;28;19975;-88
2022/01/13 12:12:48;;;;;;;;;;;-0.40;99.90;;;;;;5054524;28;19921;-88
2022/01/13 12:15:21;;;;;;;;;;;-0.30;99.90;;;;;;5037616;28;19913;-87
2022/01/13 12:17:48;;;;;;;;;;;-0.40;99.90;;;;;;5037557;28;19913;-89
2022/01/13 12:23:38;;;;;;;;;;;0.20;99.90;;;;;;5026305;28;19917;-89
2022/01/13 12:26:23;;;;;;;;;;;0.00;99.90;;;;;;5054215;28;19918;-87
2022/01/13 12:29:08;;;;;;;;;;;0.00;99.90;;;;;;5037486;28;20412;-88
2022/01/13 12:31:36;;;;;;;;;;;-0.30;99.90;;;;;;5054239;28;20261;-88
2022/01/13 12:34:02;;;;;;;;;;;-0.30;99.90;;;;;;5038413;28;19920;-88
2022/01/13 12:36:27;;;;;;;;;;;-0.40;99.90;;;;;;5039348;28;20276;-87
2022/01/13 12:38:57;;;;;;;;;;;-0.50;99.90;;;;;;5037627;28;19917;-88
2022/01/13 12:41:25;;;;;;;;;;;-0.70;99.90;;;;;;5016666;28;19910;-86
2022/01/13 12:44:02;;;;;;;;;;;-1.00;99.90;;;;;;5029704;28;19909;-87
2022/01/13 12:46:28;;;;;;;;;;;-0.80;99.90;;;;;;5008285;28;20369;-88
2022/01/13 12:48:55;;;;;;;;;;;-0.60;99.90;;;;;;5013801;28;19917;-88
2022/01/13 12:51:25;;;;;;;;;;;-0.70;99.90;;;;;;5014704;28;19913;-88
2022/01/13 12:53:51;;;;;;;;;;;-0.40;99.90;;;;;;5023130;28;19909;-87
2022/01/13 12:56:18;;;;;;;;;;;-0.60;99.90;;;;;;5033380;28;19937;-86
2022/01/13 12:58:48;;;;;;;;;;;-0.70;99.90;;;;;;5034021;28;19913;-87
2022/01/13 13:01:15;;;;;;;;;;;-0.80;99.90;;;;;;5032990;28;19925;-85
2022/01/13 13:03:41;;;;;;;;;;;-0.90;99.90;;;;;;5033221;28;19928;-90
2022/01/13 13:06:10;;;;;;;;;;;-1.10;99.90;;;;;;5020982;28;19910;-87
2022/01/13 13:08:36;;;;;;;;;;;-1.20;99.90;;;;;;5013633;28;19920;-87
2022/01/13 13:11:02;;;;;;;;;;;-1.10;99.90;;;;;;5034247;28;20008;-89
2022/01/13 13:13:29;;;;;;;;;;;-1.00;99.90;;;;;;5033555;28;19909;-86
2022/01/13 13:15:55;;;;;;;;;;;-1.10;99.90;;;;;;5035730;28;19952;-86
2022/01/13 13:18:22;;;;;;;;;;;-1.20;99.90;;;;;;5035019;28;19909;-87
2022/01/13 13:20:51;;;;;;;;;;;-1.20;99.90;;;;;;5033978;28;20059;-86
2022/01/13 13:23:19;;;;;;;;;;;-1.20;99.90;;;;;;5034500;28;19917;-86
2022/01/13 13:25:47;;;;;;;;;;;-1.10;99.90;;;;;;5034945;28;20382;-88
2022/01/13 13:28:22;;;;;;;;;;;-0.90;99.90;;;;;;5035371;28;19909;-89
2022/01/13 13:30:49;;;;;;;;;;;-0.80;99.90;;;;;;5033147;28;20811;-89
2022/01/13 13:33:15;;;;;;;;;;;-0.60;99.90;;;;;;5034232;28;19928;-87
2022/01/13 13:35:40;;;;;;;;;;;-0.60;99.90;;;;;;5038079;28;20356;-87
2022/01/13 13:38:10;;;;;;;;;;;-0.60;99.90;;;;;;5040029;28;19917;-89
2022/01/13 13:40:41;;;;;;;;;;;-1.00;99.90;;;;;;5038207;28;19913;-86
2022/01/13 13:43:07;;;;;;;;;;;-0.80;99.90;;;;;;5033525;28;19975;-87
2022/01/13 13:45:32;;;;;;;;;;;-0.70;99.90;;;;;;5033043;28;19910;-87
2022/01/13 13:47:59;;;;;;;;;;;-0.80;99.90;;;;;;5032608;28;19913;-87
2022/01/13 13:50:25;;;;;;;;;;;-1.10;99.90;;;;;;5033560;28;19924;-88
2022/01/13 13:53:07;;;;;;;;;;;-0.90;99.90;;;;;;5024193;28;19917;-86
2022/01/13 13:55:33;;;;;;;;;;;-0.90;99.90;;;;;;5033446;28;20376;-86
2022/01/13 13:57:59;;;;;;;;;;;-0.70;99.90;;;;;;5018121;28;19917;-88
2022/01/13 14:00:27;;;;;;;;;;;-0.50;99.90;;;;;;5038474;28;19917;-86
2022/01/13 14:02:55;;;;;;;;;;;-0.30;99.90;;;;;;5023581;28;20004;-87
2022/01/13 14:05:24;;;;;;;;;;;-0.60;99.90;;;;;;5039437;28;19913;-89
2022/01/13 14:07:50;;;;;;;;;;;-0.80;99.90;;;;;;5035850;28;20404;-87
2022/01/13 14:10:22;;;;;;;;;;;-0.80;99.90;;;;;;5017913;28;19949;-87
2022/01/13 14:12:51;;;;;;;;;;;-0.80;99.90;;;;;;5017781;28;19917;-86
2022/01/13 14:15:21;;;;;;;;;;;-0.90;99.90;;;;;;5033566;28;20371;-88
2022/01/13 14:17:49;;;;;;;;;;;-0.80;99.90;;;;;;5033950;28;20059;-86
2022/01/13 14:20:16;;;;;;;;;;;-0.70;99.90;;;;;;5034527;28;20394;-90
2022/01/13 14:22:42;;;;;;;;;;;-0.70;99.90;;;;;;5034872;28;19913;-88
2022/01/13 14:25:12;;;;;;;;;;;-0.70;99.90;;;;;;5033687;28;19925;-86
2022/01/13 14:27:57;;;;;;;;;;;-0.80;99.90;;;;;;5034235;28;19924;-87
2022/01/13 14:30:26;;;;;;;;;;;-0.90;99.90;;;;;;5035426;28;19909;-88
2022/01/13 14:32:51;;;;;;;;;;;-1.10;99.90;;;;;;5037362;28;19917;-88
2022/01/13 14:35:26;;;;;;;;;;;-1.10;99.90;;;;;;5038005;28;20395;-87
2022/01/13 14:37:54;;;;;;;;;;;-1.10;99.90;;;;;;5037722;28;19909;-88
2022/01/13 14:40:21;;;;;;;;;;;-1.20;99.90;;;;;;5022187;28;20008;-88